Terminal Aerodrome Forecast
Issued by NWS

Home | Current Version | Previous Version | Graphics & Text | Print | Product List | Glossary On
Versions: 1 2 3 4 5 6 7 8 9 10 11 12 13 14 15 16 17 18 19 20 21 22 23 24 25 26
000
FTUS43 KLOT 191457 AAB
TAFGYY
TAF AMD
KGYY 191457Z 1915/2012 04004KT 6SM BR VCSH SCT008 BKN015
      TEMPO 1916/1918 4SM -SHRA BR
     FM191800 05007KT P6SM SCT020 BKN030
     FM200200 11005KT P6SM FEW030 SCT200
     FM200600 16003KT 3SM BR FEW250=

USA.gov is the U.S. government's official web portal to all federal, state and local government web resources and services.